sensor_id;sensor_type;location;lat;lon;timestamp;P1;durP1;ratioP1;P2;durP2;ratioP2
75924;SDS011;64604;44.752;37.674;2022-12-07T00:00:26;5.45;;;4.35;;
75924;SDS011;64604;44.752;37.674;2022-12-07T00:01:32;5.60;;;4.45;;
75924;SDS011;64604;44.752;37.674;2022-12-07T00:02:35;6.40;;;4.25;;
75924;SDS011;64604;44.752;37.674;2022-12-07T00:03:36;8.13;;;4.40;;
75924;SDS011;64604;44.752;37.674;2022-12-07T00:04:39;6.30;;;4.30;;
75924;SDS011;64604;44.752;37.674;2022-12-07T00:05:40;5.85;;;4.70;;
75924;SDS011;64604;44.752;37.674;2022-12-07T00:06:42;7.28;;;4.10;;
75924;SDS011;64604;44.752;37.674;2022-12-07T00:07:46;5.30;;;4.28;;
75924;SDS011;64604;44.752;37.674;2022-12-07T00:08:47;6.07;;;4.28;;
75924;SDS011;64604;44.752;37.674;2022-12-07T00:09:49;6.30;;;3.92;;
75924;SDS011;64604;44.752;37.674;2022-12-07T00:10:50;5.13;;;3.85;;
75924;SDS011;64604;44.752;37.674;2022-12-07T00:11:51;6.45;;;4.07;;
75924;SDS011;64604;44.752;37.674;2022-12-07T00:12:53;6.57;;;4.18;;
75924;SDS011;64604;44.752;37.674;2022-12-07T00:13:58;4.97;;;3.50;;
75924;SDS011;64604;44.752;37.674;2022-12-07T00:15:01;5.55;;;4.05;;
75924;SDS011;64604;44.752;37.674;2022-12-07T00:16:08;7.63;;;4.50;;
75924;SDS011;64604;44.752;37.674;2022-12-07T00:17:12;7.00;;;4.43;;
75924;SDS011;64604;44.752;37.674;2022-12-07T00:18:14;7.32;;;4.47;;
75924;SDS011;64604;44.752;37.674;2022-12-07T00:19:15;11.18;;;4.28;;
75924;SDS011;64604;44.752;37.674;2022-12-07T00:20:16;7.70;;;4.57;;
75924;SDS011;64604;44.752;37.674;2022-12-07T00:21:19;7.05;;;4.70;;
75924;SDS011;64604;44.752;37.674;2022-12-07T00:22:22;5.60;;;4.35;;
75924;SDS011;64604;44.752;37.674;2022-12-07T00:23:24;6.68;;;4.53;;
75924;SDS011;64604;44.752;37.674;2022-12-07T00:24:25;8.13;;;4.95;;
75924;SDS011;64604;44.752;37.674;2022-12-07T00:25:26;7.93;;;5.07;;
75924;SDS011;64604;44.752;37.674;2022-12-07T00:26:29;6.75;;;5.03;;
75924;SDS011;64604;44.752;37.674;2022-12-07T00:27:34;5.57;;;4.82;;
75924;SDS011;64604;44.752;37.674;2022-12-07T00:28:36;7.68;;;5.50;;
75924;SDS011;64604;44.752;37.674;2022-12-07T00:29:38;8.25;;;5.32;;
75924;SDS011;64604;44.752;37.674;2022-12-07T00:30:39;7.63;;;5.22;;
75924;SDS011;64604;44.752;37.674;2022-12-07T00:31:41;7.07;;;4.80;;
75924;SDS011;64604;44.752;37.674;2022-12-07T00:32:42;7.18;;;5.18;;
75924;SDS011;64604;44.752;37.674;2022-12-07T00:33:43;8.68;;;5.30;;
75924;SDS011;64604;44.752;37.674;2022-12-07T00:34:45;6.60;;;4.53;;
75924;SDS011;64604;44.752;37.674;2022-12-07T00:35:46;7.18;;;5.18;;
75924;SDS011;64604;44.752;37.674;2022-12-07T00:36:55;8.02;;;5.45;;
75924;SDS011;64604;44.752;37.674;2022-12-07T00:37:56;6.97;;;5.20;;
75924;SDS011;64604;44.752;37.674;2022-12-07T00:38:58;8.90;;;5.60;;
75924;SDS011;64604;44.752;37.674;2022-12-07T00:40:00;8.45;;;5.50;;
75924;SDS011;64604;44.752;37.674;2022-12-07T00:41:05;7.82;;;5.60;;
75924;SDS011;64604;44.752;37.674;2022-12-07T00:42:14;6.65;;;5.22;;
75924;SDS011;64604;44.752;37.674;2022-12-07T00:43:15;9.35;;;5.47;;
75924;SDS011;64604;44.752;37.674;2022-12-07T00:44:17;6.60;;;5.47;;
75924;SDS011;64604;44.752;37.674;2022-12-07T00:45:18;7.95;;;5.38;;
75924;SDS011;64604;44.752;37.674;2022-12-07T00:46:20;6.63;;;5.13;;
75924;SDS011;64604;44.752;37.674;2022-12-07T00:47:22;9.13;;;5.85;;
75924;SDS011;64604;44.752;37.674;2022-12-07T00:48:24;7.85;;;5.43;;
75924;SDS011;64604;44.752;37.674;2022-12-07T00:49:26;8.40;;;5.53;;
75924;SDS011;64604;44.752;37.674;2022-12-07T00:50:27;7.20;;;5.47;;
75924;SDS011;64604;44.752;37.674;2022-12-07T00:51:28;9.00;;;5.60;;
75924;SDS011;64604;44.752;37.674;2022-12-07T00:52:30;7.75;;;5.65;;
75924;SDS011;64604;44.752;37.674;2022-12-07T00:53:33;8.25;;;5.55;;
75924;SDS011;64604;44.752;37.674;2022-12-07T00:54:35;9.13;;;6.10;;
75924;SDS011;64604;44.752;37.674;2022-12-07T00:55:37;8.25;;;5.47;;
75924;SDS011;64604;44.752;37.674;2022-12-07T00:56:39;12.27;;;6.57;;
75924;SDS011;64604;44.752;37.674;2022-12-07T00:57:40;8.10;;;6.20;;
75924;SDS011;64604;44.752;37.674;2022-12-07T00:58:42;9.80;;;5.85;;
75924;SDS011;64604;44.752;37.674;2022-12-07T00:59:43;7.32;;;5.78;;
75924;SDS011;64604;44.752;37.674;2022-12-07T01:00:45;9.80;;;6.03;;
75924;SDS011;64604;44.752;37.674;2022-12-07T01:01:46;11.00;;;6.47;;
75924;SDS011;64604;44.752;37.674;2022-12-07T01:02:48;8.00;;;5.85;;
75924;SDS011;64604;44.752;37.674;2022-12-07T01:03:49;9.57;;;6.28;;
75924;SDS011;64604;44.752;37.674;2022-12-07T01:04:50;9.43;;;6.05;;
75924;SDS011;64604;44.752;37.674;2022-12-07T01:05:53;7.95;;;5.70;;
75924;SDS011;64604;44.752;37.674;2022-12-07T01:06:56;8.95;;;6.15;;
75924;SDS011;64604;44.752;37.674;2022-12-07T01:07:57;9.00;;;6.25;;
75924;SDS011;64604;44.752;37.674;2022-12-07T01:08:59;9.73;;;6.13;;
75924;SDS011;64604;44.752;37.674;2022-12-07T01:10:00;9.48;;;6.57;;
75924;SDS011;64604;44.752;37.674;2022-12-07T01:11:03;11.27;;;8.30;;
75924;SDS011;64604;44.752;37.674;2022-12-07T01:12:06;11.77;;;8.82;;
75924;SDS011;64604;44.752;37.674;2022-12-07T01:13:08;19.88;;;12.10;;
75924;SDS011;64604;44.752;37.674;2022-12-07T01:14:09;18.77;;;12.55;;
75924;SDS011;64604;44.752;37.674;2022-12-07T01:15:11;20.70;;;14.30;;
75924;SDS011;64604;44.752;37.674;2022-12-07T01:16:13;22.90;;;16.77;;
75924;SDS011;64604;44.752;37.674;2022-12-07T01:17:16;23.55;;;15.43;;
75924;SDS011;64604;44.752;37.674;2022-12-07T01:18:17;25.08;;;17.15;;
75924;SDS011;64604;44.752;37.674;2022-12-07T01:19:19;25.88;;;16.02;;
75924;SDS011;64604;44.752;37.674;2022-12-07T01:20:20;20.23;;;15.40;;
75924;SDS011;64604;44.752;37.674;2022-12-07T01:21:23;21.17;;;14.55;;
75924;SDS011;64604;44.752;37.674;2022-12-07T01:22:29;25.27;;;15.15;;
75924;SDS011;64604;44.752;37.674;2022-12-07T01:23:31;25.50;;;16.63;;
75924;SDS011;64604;44.752;37.674;2022-12-07T01:24:33;28.58;;;18.42;;
75924;SDS011;64604;44.752;37.674;2022-12-07T01:25:34;28.42;;;18.73;;
75924;SDS011;64604;44.752;37.674;2022-12-07T01:26:36;24.23;;;17.60;;
75924;SDS011;64604;44.752;37.674;2022-12-07T01:27:37;27.88;;;17.80;;
75924;SDS011;64604;44.752;37.674;2022-12-07T01:28:39;28.98;;;19.55;;
75924;SDS011;64604;44.752;37.674;2022-12-07T01:29:40;33.65;;;18.38;;
75924;SDS011;64604;44.752;37.674;2022-12-07T01:30:42;29.45;;;18.85;;
75924;SDS011;64604;44.752;37.674;2022-12-07T01:31:43;27.95;;;17.83;;
75924;SDS011;64604;44.752;37.674;2022-12-07T01:32:44;28.77;;;18.60;;
75924;SDS011;64604;44.752;37.674;2022-12-07T01:33:47;27.92;;;18.38;;
75924;SDS011;64604;44.752;37.674;2022-12-07T01:34:50;26.67;;;17.58;;
75924;SDS011;64604;44.752;37.674;2022-12-07T01:35:51;22.73;;;16.17;;
75924;SDS011;64604;44.752;37.674;2022-12-07T01:36:52;25.73;;;15.60;;
75924;SDS011;64604;44.752;37.674;2022-12-07T01:37:54;21.10;;;14.63;;
75924;SDS011;64604;44.752;37.674;2022-12-07T01:38:56;23.13;;;15.07;;
75924;SDS011;64604;44.752;37.674;2022-12-07T01:40:00;20.92;;;13.00;;
75924;SDS011;64604;44.752;37.674;2022-12-07T01:41:01;16.50;;;10.80;;
75924;SDS011;64604;44.752;37.674;2022-12-07T01:42:03;18.13;;;12.02;;
75924;SDS011;64604;44.752;37.674;2022-12-07T01:43:12;20.00;;;11.50;;
75924;SDS011;64604;44.752;37.674;2022-12-07T01:46:31;17.20;;;12.85;;
75924;SDS011;64604;44.752;37.674;2022-12-07T01:47:32;21.73;;;13.82;;
75924;SDS011;64604;44.752;37.674;2022-12-07T01:48:35;14.90;;;11.40;;
75924;SDS011;64604;44.752;37.674;2022-12-07T01:49:46;15.30;;;10.90;;
75924;SDS011;64604;44.752;37.674;2022-12-07T01:50:50;15.30;;;10.32;;
75924;SDS011;64604;44.752;37.674;2022-12-07T01:51:58;13.68;;;9.45;;
75924;SDS011;64604;44.752;37.674;2022-12-07T01:53:17;11.88;;;8.95;;
75924;SDS011;64604;44.752;37.674;2022-12-07T01:54:19;16.35;;;10.25;;
75924;SDS011;64604;44.752;37.674;2022-12-07T01:55:22;14.32;;;10.32;;
75924;SDS011;64604;44.752;37.674;2022-12-07T01:56:24;14.77;;;10.43;;
75924;SDS011;64604;44.752;37.674;2022-12-07T01:57:28;17.95;;;11.13;;
75924;SDS011;64604;44.752;37.674;2022-12-07T01:58:31;15.32;;;10.90;;
75924;SDS011;64604;44.752;37.674;2022-12-07T01:59:32;17.60;;;11.77;;
75924;SDS011;64604;44.752;37.674;2022-12-07T02:00:35;18.55;;;12.82;;
75924;SDS011;64604;44.752;37.674;2022-12-07T02:01:36;19.95;;;13.43;;
75924;SDS011;64604;44.752;37.674;2022-12-07T02:04:27;21.27;;;12.98;;
75924;SDS011;64604;44.752;37.674;2022-12-07T02:05:30;18.90;;;12.55;;
75924;SDS011;64604;44.752;37.674;2022-12-07T02:06:32;19.15;;;13.10;;
75924;SDS011;64604;44.752;37.674;2022-12-07T02:07:36;18.33;;;12.30;;
75924;SDS011;64604;44.752;37.674;2022-12-07T02:08:39;15.70;;;9.95;;
75924;SDS011;64604;44.752;37.674;2022-12-07T02:09:42;17.75;;;10.13;;
75924;SDS011;64604;44.752;37.674;2022-12-07T02:10:43;13.73;;;8.95;;
75924;SDS011;64604;44.752;37.674;2022-12-07T02:11:45;13.73;;;8.75;;
75924;SDS011;64604;44.752;37.674;2022-12-07T02:12:50;8.95;;;6.60;;
75924;SDS011;64604;44.752;37.674;2022-12-07T02:14:01;7.78;;;5.90;;
75924;SDS011;64604;44.752;37.674;2022-12-07T02:15:02;5.32;;;4.18;;
75924;SDS011;64604;44.752;37.674;2022-12-07T02:17:22;5.68;;;3.30;;
75924;SDS011;64604;44.752;37.674;2022-12-07T02:25:40;6.90;;;4.30;;
75924;SDS011;64604;44.752;37.674;2022-12-07T02:29:38;8.60;;;4.50;;
75924;SDS011;64604;44.752;37.674;2022-12-07T02:30:45;6.30;;;4.53;;
75924;SDS011;64604;44.752;37.674;2022-12-07T02:31:52;6.28;;;4.30;;
75924;SDS011;64604;44.752;37.674;2022-12-07T02:33:04;6.05;;;4.70;;
75924;SDS011;64604;44.752;37.674;2022-12-07T02:34:13;6.80;;;5.10;;
75924;SDS011;64604;44.752;37.674;2022-12-07T02:35:40;8.82;;;5.80;;
75924;SDS011;64604;44.752;37.674;2022-12-07T02:37:09;10.40;;;6.47;;
75924;SDS011;64604;44.752;37.674;2022-12-07T02:38:20;9.25;;;6.70;;
75924;SDS011;64604;44.752;37.674;2022-12-07T02:39:40;9.50;;;6.43;;
75924;SDS011;64604;44.752;37.674;2022-12-07T02:41:54;9.90;;;5.90;;
75924;SDS011;64604;44.752;37.674;2022-12-07T02:43:16;7.43;;;5.55;;
75924;SDS011;64604;44.752;37.674;2022-12-07T02:44:29;9.18;;;5.72;;
75924;SDS011;64604;44.752;37.674;2022-12-07T02:45:32;7.35;;;5.20;;
75924;SDS011;64604;44.752;37.674;2022-12-07T02:46:39;7.22;;;4.88;;
75924;SDS011;64604;44.752;37.674;2022-12-07T02:47:43;6.80;;;4.93;;
75924;SDS011;64604;44.752;37.674;2022-12-07T02:48:49;6.72;;;4.63;;
75924;SDS011;64604;44.752;37.674;2022-12-07T02:49:52;8.27;;;4.88;;
75924;SDS011;64604;44.752;37.674;2022-12-07T02:50:54;6.85;;;4.10;;
75924;SDS011;64604;44.752;37.674;2022-12-07T02:51:55;7.20;;;4.50;;
75924;SDS011;64604;44.752;37.674;2022-12-07T02:52:57;6.90;;;4.35;;
75924;SDS011;64604;44.752;37.674;2022-12-07T02:53:59;5.47;;;4.57;;
75924;SDS011;64604;44.752;37.674;2022-12-07T02:55:01;6.47;;;4.68;;
75924;SDS011;64604;44.752;37.674;2022-12-07T03:00:23;6.80;;;3.83;;
75924;SDS011;64604;44.752;37.674;2022-12-07T03:01:34;4.20;;;3.60;;
75924;SDS011;64604;44.752;37.674;2022-12-07T03:03:48;6.35;;;3.60;;
75924;SDS011;64604;44.752;37.674;2022-12-07T03:05:20;6.00;;;3.78;;
75924;SDS011;64604;44.752;37.674;2022-12-07T03:06:36;4.10;;;3.30;;
75924;SDS011;64604;44.752;37.674;2022-12-07T03:07:51;4.88;;;3.38;;
75924;SDS011;64604;44.752;37.674;2022-12-07T03:10:24;5.20;;;2.92;;
75924;SDS011;64604;44.752;37.674;2022-12-07T03:11:50;6.10;;;3.13;;
75924;SDS011;64604;44.752;37.674;2022-12-07T03:14:16;5.40;;;3.70;;
75924;SDS011;64604;44.752;37.674;2022-12-07T03:16:58;6.88;;;3.60;;
75924;SDS011;64604;44.752;37.674;2022-12-07T03:18:05;4.70;;;4.07;;
75924;SDS011;64604;44.752;37.674;2022-12-07T03:19:18;4.70;;;3.58;;
75924;SDS011;64604;44.752;37.674;2022-12-07T03:20:22;5.38;;;3.65;;
75924;SDS011;64604;44.752;37.674;2022-12-07T03:21:32;8.65;;;3.80;;
75924;SDS011;64604;44.752;37.674;2022-12-07T03:22:38;4.45;;;3.70;;
75924;SDS011;64604;44.752;37.674;2022-12-07T03:23:44;4.97;;;3.88;;
75924;SDS011;64604;44.752;37.674;2022-12-07T03:24:51;5.40;;;3.85;;
75924;SDS011;64604;44.752;37.674;2022-12-07T03:25:56;4.88;;;3.60;;
75924;SDS011;64604;44.752;37.674;2022-12-07T03:27:05;4.47;;;3.55;;
75924;SDS011;64604;44.752;37.674;2022-12-07T03:28:14;5.57;;;3.67;;
75924;SDS011;64604;44.752;37.674;2022-12-07T03:29:22;6.03;;;3.35;;
75924;SDS011;64604;44.752;37.674;2022-12-07T03:30:35;8.70;;;4.43;;
75924;SDS011;64604;44.752;37.674;2022-12-07T03:32:05;6.75;;;3.45;;
75924;SDS011;64604;44.752;37.674;2022-12-07T03:33:30;4.68;;;3.55;;
75924;SDS011;64604;44.752;37.674;2022-12-07T03:34:51;6.28;;;3.60;;
75924;SDS011;64604;44.752;37.674;2022-12-07T03:36:04;8.15;;;4.40;;
75924;SDS011;64604;44.752;37.674;2022-12-07T03:37:13;7.22;;;3.83;;
75924;SDS011;64604;44.752;37.674;2022-12-07T03:38:20;7.72;;;4.30;;
75924;SDS011;64604;44.752;37.674;2022-12-07T03:39:29;7.53;;;4.18;;
75924;SDS011;64604;44.752;37.674;2022-12-07T03:40:40;5.40;;;3.85;;
75924;SDS011;64604;44.752;37.674;2022-12-07T03:41:50;5.68;;;3.90;;
75924;SDS011;64604;44.752;37.674;2022-12-07T03:42:52;7.03;;;4.03;;
75924;SDS011;64604;44.752;37.674;2022-12-07T03:43:55;9.07;;;4.45;;
75924;SDS011;64604;44.752;37.674;2022-12-07T03:44:58;6.68;;;4.45;;
75924;SDS011;64604;44.752;37.674;2022-12-07T03:50:10;6.35;;;3.58;;
75924;SDS011;64604;44.752;37.674;2022-12-07T03:51:30;5.32;;;3.85;;
75924;SDS011;64604;44.752;37.674;2022-12-07T03:52:41;6.13;;;4.78;;
75924;SDS011;64604;44.752;37.674;2022-12-07T03:53:59;7.80;;;5.05;;
75924;SDS011;64604;44.752;37.674;2022-12-07T03:56:14;8.23;;;5.10;;
75924;SDS011;64604;44.752;37.674;2022-12-07T03:57:17;9.40;;;4.68;;
75924;SDS011;64604;44.752;37.674;2022-12-07T03:58:20;6.65;;;4.85;;
75924;SDS011;64604;44.752;37.674;2022-12-07T03:59:24;7.68;;;4.57;;
75924;SDS011;64604;44.752;37.674;2022-12-07T04:00:26;7.97;;;4.80;;
75924;SDS011;64604;44.752;37.674;2022-12-07T04:01:28;6.60;;;4.57;;
75924;SDS011;64604;44.752;37.674;2022-12-07T04:02:29;6.07;;;4.70;;
75924;SDS011;64604;44.752;37.674;2022-12-07T04:03:31;8.38;;;4.97;;
75924;SDS011;64604;44.752;37.674;2022-12-07T04:04:33;8.75;;;5.20;;
75924;SDS011;64604;44.752;37.674;2022-12-07T04:05:35;5.35;;;4.55;;
75924;SDS011;64604;44.752;37.674;2022-12-07T04:06:37;7.18;;;4.32;;
75924;SDS011;64604;44.752;37.674;2022-12-07T04:07:38;8.48;;;4.20;;
75924;SDS011;64604;44.752;37.674;2022-12-07T04:08:41;6.15;;;4.45;;
75924;SDS011;64604;44.752;37.674;2022-12-07T04:09:42;5.75;;;4.07;;
75924;SDS011;64604;44.752;37.674;2022-12-07T04:10:43;5.57;;;4.30;;
75924;SDS011;64604;44.752;37.674;2022-12-07T04:11:45;7.78;;;4.68;;
75924;SDS011;64604;44.752;37.674;2022-12-07T04:12:46;8.98;;;4.50;;
75924;SDS011;64604;44.752;37.674;2022-12-07T04:13:48;8.00;;;4.40;;
75924;SDS011;64604;44.752;37.674;2022-12-07T04:15:08;5.18;;;3.80;;
75924;SDS011;64604;44.752;37.674;2022-12-07T04:16:09;5.20;;;4.45;;
75924;SDS011;64604;44.752;37.674;2022-12-07T04:17:11;6.40;;;5.32;;
75924;SDS011;64604;44.752;37.674;2022-12-07T04:18:12;5.80;;;3.88;;
75924;SDS011;64604;44.752;37.674;2022-12-07T04:19:13;4.47;;;3.25;;
75924;SDS011;64604;44.752;37.674;2022-12-07T04:20:15;4.95;;;3.42;;
75924;SDS011;64604;44.752;37.674;2022-12-07T04:21:17;4.82;;;3.35;;
75924;SDS011;64604;44.752;37.674;2022-12-07T04:22:18;5.07;;;3.42;;
75924;SDS011;64604;44.752;37.674;2022-12-07T04:23:19;3.65;;;2.83;;
75924;SDS011;64604;44.752;37.674;2022-12-07T04:24:21;3.28;;;2.72;;
75924;SDS011;64604;44.752;37.674;2022-12-07T04:25:24;4.57;;;3.13;;
75924;SDS011;64604;44.752;37.674;2022-12-07T04:26:25;3.20;;;2.70;;
75924;SDS011;64604;44.752;37.674;2022-12-07T04:27:26;4.97;;;3.15;;
75924;SDS011;64604;44.752;37.674;2022-12-07T04:28:28;4.97;;;2.78;;
75924;SDS011;64604;44.752;37.674;2022-12-07T04:29:29;5.75;;;2.80;;
75924;SDS011;64604;44.752;37.674;2022-12-07T04:30:30;4.68;;;3.10;;
75924;SDS011;64604;44.752;37.674;2022-12-07T04:31:32;4.40;;;3.20;;
75924;SDS011;64604;44.752;37.674;2022-12-07T04:32:33;4.40;;;3.00;;
75924;SDS011;64604;44.752;37.674;2022-12-07T04:33:35;4.88;;;2.65;;
75924;SDS011;64604;44.752;37.674;2022-12-07T04:34:37;3.50;;;2.88;;
75924;SDS011;64604;44.752;37.674;2022-12-07T04:35:38;4.20;;;2.70;;
75924;SDS011;64604;44.752;37.674;2022-12-07T04:36:40;3.63;;;2.42;;
75924;SDS011;64604;44.752;37.674;2022-12-07T04:37:42;3.28;;;2.60;;
75924;SDS011;64604;44.752;37.674;2022-12-07T04:38:43;3.00;;;2.25;;
75924;SDS011;64604;44.752;37.674;2022-12-07T04:39:45;3.35;;;2.50;;
75924;SDS011;64604;44.752;37.674;2022-12-07T04:40:46;3.35;;;2.03;;
75924;SDS011;64604;44.752;37.674;2022-12-07T04:41:48;4.07;;;2.40;;
75924;SDS011;64604;44.752;37.674;2022-12-07T04:42:49;2.65;;;2.10;;
75924;SDS011;64604;44.752;37.674;2022-12-07T04:43:51;2.95;;;2.22;;
75924;SDS011;64604;44.752;37.674;2022-12-07T04:44:52;3.95;;;2.13;;
75924;SDS011;64604;44.752;37.674;2022-12-07T04:45:53;3.25;;;2.15;;
75924;SDS011;64604;44.752;37.674;2022-12-07T04:46:55;2.60;;;2.00;;
75924;SDS011;64604;44.752;37.674;2022-12-07T04:47:57;2.95;;;1.98;;
75924;SDS011;64604;44.752;37.674;2022-12-07T04:48:59;2.70;;;2.00;;
75924;SDS011;64604;44.752;37.674;2022-12-07T04:50:00;2.85;;;1.80;;
75924;SDS011;64604;44.752;37.674;2022-12-07T04:51:02;3.05;;;1.90;;
75924;SDS011;64604;44.752;37.674;2022-12-07T04:52:04;2.85;;;2.00;;
75924;SDS011;64604;44.752;37.674;2022-12-07T04:53:06;3.38;;;1.70;;
75924;SDS011;64604;44.752;37.674;2022-12-07T04:54:07;2.78;;;1.98;;
75924;SDS011;64604;44.752;37.674;2022-12-07T04:55:08;2.10;;;1.90;;
75924;SDS011;64604;44.752;37.674;2022-12-07T04:56:10;2.20;;;1.75;;
75924;SDS011;64604;44.752;37.674;2022-12-07T04:57:11;2.33;;;1.60;;
75924;SDS011;64604;44.752;37.674;2022-12-07T04:58:12;4.57;;;3.15;;
75924;SDS011;64604;44.752;37.674;2022-12-07T04:59:15;4.25;;;3.10;;
75924;SDS011;64604;44.752;37.674;2022-12-07T05:00:17;5.40;;;3.60;;
75924;SDS011;64604;44.752;37.674;2022-12-07T05:01:19;4.97;;;3.72;;
75924;SDS011;64604;44.752;37.674;2022-12-07T05:02:22;5.85;;;4.13;;
75924;SDS011;64604;44.752;37.674;2022-12-07T05:03:23;4.75;;;3.70;;
75924;SDS011;64604;44.752;37.674;2022-12-07T05:04:24;4.25;;;3.42;;
75924;SDS011;64604;44.752;37.674;2022-12-07T05:05:26;6.03;;;3.83;;
75924;SDS011;64604;44.752;37.674;2022-12-07T05:06:27;5.75;;;4.00;;
75924;SDS011;64604;44.752;37.674;2022-12-07T05:07:29;5.28;;;4.50;;
75924;SDS011;64604;44.752;37.674;2022-12-07T05:08:31;5.53;;;4.38;;
75924;SDS011;64604;44.752;37.674;2022-12-07T05:09:33;4.75;;;4.25;;
75924;SDS011;64604;44.752;37.674;2022-12-07T05:10:35;11.82;;;4.57;;
75924;SDS011;64604;44.752;37.674;2022-12-07T05:11:36;7.80;;;4.53;;
75924;SDS011;64604;44.752;37.674;2022-12-07T05:12:40;8.15;;;5.30;;
75924;SDS011;64604;44.752;37.674;2022-12-07T05:13:42;6.70;;;5.28;;
75924;SDS011;64604;44.752;37.674;2022-12-07T05:14:43;5.35;;;3.50;;
75924;SDS011;64604;44.752;37.674;2022-12-07T05:15:46;6.22;;;4.28;;
75924;SDS011;64604;44.752;37.674;2022-12-07T05:16:49;5.32;;;3.85;;
75924;SDS011;64604;44.752;37.674;2022-12-07T05:17:51;6.18;;;4.15;;
75924;SDS011;64604;44.752;37.674;2022-12-07T05:18:53;5.95;;;4.15;;
75924;SDS011;64604;44.752;37.674;2022-12-07T05:19:55;6.43;;;4.15;;
75924;SDS011;64604;44.752;37.674;2022-12-07T05:20:56;6.25;;;3.80;;
75924;SDS011;64604;44.752;37.674;2022-12-07T05:21:57;5.30;;;3.22;;
75924;SDS011;64604;44.752;37.674;2022-12-07T05:22:59;4.93;;;3.45;;
75924;SDS011;64604;44.752;37.674;2022-12-07T05:24:00;5.53;;;2.80;;
75924;SDS011;64604;44.752;37.674;2022-12-07T05:25:02;4.15;;;2.55;;
75924;SDS011;64604;44.752;37.674;2022-12-07T05:26:04;3.28;;;2.13;;
75924;SDS011;64604;44.752;37.674;2022-12-07T05:27:05;2.92;;;2.10;;
75924;SDS011;64604;44.752;37.674;2022-12-07T05:28:07;2.85;;;2.30;;
75924;SDS011;64604;44.752;37.674;2022-12-07T05:29:10;2.63;;;2.08;;
75924;SDS011;64604;44.752;37.674;2022-12-07T05:30:13;4.40;;;1.95;;
75924;SDS011;64604;44.752;37.674;2022-12-07T05:31:15;3.50;;;1.85;;
75924;SDS011;64604;44.752;37.674;2022-12-07T05:32:17;2.67;;;2.00;;
75924;SDS011;64604;44.752;37.674;2022-12-07T05:33:18;3.58;;;1.90;;
75924;SDS011;64604;44.752;37.674;2022-12-07T05:34:20;3.13;;;2.03;;
75924;SDS011;64604;44.752;37.674;2022-12-07T05:35:21;2.15;;;1.92;;
75924;SDS011;64604;44.752;37.674;2022-12-07T05:36:22;3.75;;;2.33;;
75924;SDS011;64604;44.752;37.674;2022-12-07T05:37:24;3.30;;;2.30;;
75924;SDS011;64604;44.752;37.674;2022-12-07T05:38:25;3.55;;;2.53;;
75924;SDS011;64604;44.752;37.674;2022-12-07T05:39:27;3.65;;;2.65;;
75924;SDS011;64604;44.752;37.674;2022-12-07T05:40:28;6.93;;;2.38;;
75924;SDS011;64604;44.752;37.674;2022-12-07T05:41:30;3.80;;;2.70;;
75924;SDS011;64604;44.752;37.674;2022-12-07T05:42:49;4.40;;;2.60;;
75924;SDS011;64604;44.752;37.674;2022-12-07T05:43:51;3.85;;;2.53;;
75924;SDS011;64604;44.752;37.674;2022-12-07T05:44:52;5.93;;;2.80;;
75924;SDS011;64604;44.752;37.674;2022-12-07T05:45:54;2.75;;;2.47;;
75924;SDS011;64604;44.752;37.674;2022-12-07T05:46:55;4.13;;;2.75;;
75924;SDS011;64604;44.752;37.674;2022-12-07T05:47:56;7.68;;;2.97;;
75924;SDS011;64604;44.752;37.674;2022-12-07T05:48:58;3.50;;;2.97;;
75924;SDS011;64604;44.752;37.674;2022-12-07T05:49:59;5.55;;;3.10;;
75924;SDS011;64604;44.752;37.674;2022-12-07T05:51:01;4.45;;;3.22;;
75924;SDS011;64604;44.752;37.674;2022-12-07T05:52:02;4.70;;;3.00;;
75924;SDS011;64604;44.752;37.674;2022-12-07T05:53:04;4.70;;;3.20;;
75924;SDS011;64604;44.752;37.674;2022-12-07T05:54:05;4.38;;;2.97;;
75924;SDS011;64604;44.752;37.674;2022-12-07T05:55:07;3.90;;;3.10;;
75924;SDS011;64604;44.752;37.674;2022-12-07T05:56:08;5.25;;;3.33;;
75924;SDS011;64604;44.752;37.674;2022-12-07T05:57:10;5.75;;;3.13;;
75924;SDS011;64604;44.752;37.674;2022-12-07T05:58:11;6.93;;;3.88;;
75924;SDS011;64604;44.752;37.674;2022-12-07T05:59:42;6.35;;;3.38;;
75924;SDS011;64604;44.752;37.674;2022-12-07T06:00:43;5.93;;;3.30;;
75924;SDS011;64604;44.752;37.674;2022-12-07T06:01:45;4.32;;;2.85;;
75924;SDS011;64604;44.752;37.674;2022-12-07T06:02:46;5.18;;;2.58;;
75924;SDS011;64604;44.752;37.674;2022-12-07T06:03:48;4.13;;;2.75;;
75924;SDS011;64604;44.752;37.674;2022-12-07T06:04:49;3.05;;;2.50;;
75924;SDS011;64604;44.752;37.674;2022-12-07T06:05:51;3.95;;;2.38;;
75924;SDS011;64604;44.752;37.674;2022-12-07T06:06:53;3.63;;;2.40;;
75924;SDS011;64604;44.752;37.674;2022-12-07T06:07:55;3.88;;;2.40;;
75924;SDS011;64604;44.752;37.674;2022-12-07T06:08:56;2.38;;;2.13;;
75924;SDS011;64604;44.752;37.674;2022-12-07T06:09:58;4.70;;;2.50;;
75924;SDS011;64604;44.752;37.674;2022-12-07T06:10:59;4.10;;;2.35;;
75924;SDS011;64604;44.752;37.674;2022-12-07T06:12:19;3.95;;;2.60;;
75924;SDS011;64604;44.752;37.674;2022-12-07T06:13:36;2.63;;;2.28;;
75924;SDS011;64604;44.752;37.674;2022-12-07T06:14:37;4.97;;;2.80;;
75924;SDS011;64604;44.752;37.674;2022-12-07T06:15:39;5.35;;;2.70;;
75924;SDS011;64604;44.752;37.674;2022-12-07T06:16:41;2.70;;;2.20;;
75924;SDS011;64604;44.752;37.674;2022-12-07T06:17:42;3.33;;;2.50;;
75924;SDS011;64604;44.752;37.674;2022-12-07T06:18:44;3.80;;;2.53;;
75924;SDS011;64604;44.752;37.674;2022-12-07T06:19:45;5.05;;;2.25;;
75924;SDS011;64604;44.752;37.674;2022-12-07T06:20:47;3.17;;;2.45;;
75924;SDS011;64604;44.752;37.674;2022-12-07T06:21:48;3.25;;;2.58;;
75924;SDS011;64604;44.752;37.674;2022-12-07T06:22:50;4.03;;;2.33;;
75924;SDS011;64604;44.752;37.674;2022-12-07T06:23:51;2.75;;;2.20;;
75924;SDS011;64604;44.752;37.674;2022-12-07T06:24:53;3.42;;;2.28;;
75924;SDS011;64604;44.752;37.674;2022-12-07T06:25:54;2.67;;;2.17;;
75924;SDS011;64604;44.752;37.674;2022-12-07T06:26:56;3.40;;;2.22;;
75924;SDS011;64604;44.752;37.674;2022-12-07T06:27:58;3.95;;;2.38;;
75924;SDS011;64604;44.752;37.674;2022-12-07T06:28:59;3.65;;;2.35;;
75924;SDS011;64604;44.752;37.674;2022-12-07T06:30:01;3.10;;;2.50;;
75924;SDS011;64604;44.752;37.674;2022-12-07T06:31:07;3.33;;;2.47;;
75924;SDS011;64604;44.752;37.674;2022-12-07T06:32:08;4.03;;;2.75;;
75924;SDS011;64604;44.752;37.674;2022-12-07T06:33:10;3.33;;;2.65;;
75924;SDS011;64604;44.752;37.674;2022-12-07T06:34:13;5.70;;;3.08;;
75924;SDS011;64604;44.752;37.674;2022-12-07T06:35:16;4.65;;;3.15;;
75924;SDS011;64604;44.752;37.674;2022-12-07T06:36:17;4.93;;;3.17;;
75924;SDS011;64604;44.752;37.674;2022-12-07T06:37:19;3.80;;;3.13;;
75924;SDS011;64604;44.752;37.674;2022-12-07T06:38:20;2.97;;;2.40;;
75924;SDS011;64604;44.752;37.674;2022-12-07T06:39:23;3.10;;;2.78;;
75924;SDS011;64604;44.752;37.674;2022-12-07T06:40:26;4.05;;;2.50;;
75924;SDS011;64604;44.752;37.674;2022-12-07T06:41:27;3.90;;;2.75;;
75924;SDS011;64604;44.752;37.674;2022-12-07T06:42:29;3.58;;;2.85;;
75924;SDS011;64604;44.752;37.674;2022-12-07T06:43:30;5.38;;;2.72;;
75924;SDS011;64604;44.752;37.674;2022-12-07T06:44:32;4.43;;;3.20;;
75924;SDS011;64604;44.752;37.674;2022-12-07T06:45:34;4.25;;;2.80;;
75924;SDS011;64604;44.752;37.674;2022-12-07T06:46:35;4.13;;;2.90;;
75924;SDS011;64604;44.752;37.674;2022-12-07T06:47:37;4.00;;;2.90;;
75924;SDS011;64604;44.752;37.674;2022-12-07T06:48:38;5.78;;;3.00;;